Time;durP1;ratioP1;P1;durP2;ratioP2;P2;SDS_P1;SDS_P2;PMS_P1;PMS_P2;Temp;Humidity;BMP_temperature;BMP_pressure;BME280_temperature;BME280_humidity;BME280_pressure;Samples;Min_cycle;Max_cycle;Signal;HPM_P1;HPM_P2
2021/03/22 00:00:45;;;;;;;41.67;21.58;;;2.30;61.20;;;;;;5021825;28;20054;-70
2021/03/22 00:03:12;;;;;;;36.13;19.20;;;2.30;61.30;;;;;;5019714;28;20033;-71
2021/03/22 00:05:38;;;;;;;42.90;19.83;;;2.30;61.30;;;;;;5021079;28;20108;-72
2021/03/22 00:08:06;;;;;;;34.17;18.35;;;2.20;61.30;;;;;;5022409;28;20025;-70
2021/03/22 00:10:34;;;;;;;33.33;17.85;;;2.30;61.40;;;;;;5022828;28;20018;-70
2021/03/22 00:13:01;;;;;;;40.92;19.10;;;2.20;61.40;;;;;;5025659;28;20022;-71
2021/03/22 00:15:32;;;;;;;34.13;17.83;;;2.20;61.50;;;;;;5022559;28;20498;-71
2021/03/22 00:17:58;;;;;;;37.92;18.98;;;2.20;61.60;;;;;;5025282;28;20030;-71
2021/03/22 00:20:24;;;;;;;33.33;17.00;;;2.20;61.60;;;;;;5026730;28;20079;-71
2021/03/22 00:22:50;;;;;;;32.25;17.98;;;2.20;61.70;;;;;;5025230;28;20022;-71
2021/03/22 00:25:17;;;;;;;28.00;16.33;;;2.10;61.80;;;;;;5025003;28;20032;-71
2021/03/22 00:27:43;;;;;;;31.58;16.30;;;2.10;61.90;;;;;;5026692;28;20049;-70
2021/03/22 00:30:11;;;;;;;26.67;15.80;;;2.10;62.00;;;;;;5024975;28;20553;-70
2021/03/22 00:32:37;;;;;;;26.58;15.48;;;2.10;62.10;;;;;;5025388;28;20025;-70
2021/03/22 00:35:04;;;;;;;29.55;15.98;;;2.10;62.10;;;;;;5026742;28;20025;-70
2021/03/22 00:37:29;;;;;;;26.80;15.35;;;2.10;62.10;;;;;;5024933;28;20117;-70
2021/03/22 00:39:55;;;;;;;26.65;14.40;;;2.00;62.00;;;;;;5025350;28;20096;-69
2021/03/22 00:42:21;;;;;;;28.40;15.70;;;2.00;62.00;;;;;;5026016;28;20032;-70
2021/03/22 00:44:47;;;;;;;28.20;15.13;;;2.00;62.10;;;;;;5021931;28;20427;-70
2021/03/22 00:47:13;;;;;;;29.30;16.73;;;2.00;62.10;;;;;;5025300;28;20053;-70
2021/03/22 00:49:39;;;;;;;27.55;15.23;;;2.00;62.20;;;;;;5025688;28;20034;-71
2021/03/22 00:52:07;;;;;;;26.23;14.27;;;2.00;62.40;;;;;;5024374;28;20030;-69
2021/03/22 00:54:32;;;;;;;25.40;14.63;;;2.00;62.40;;;;;;5023944;28;20068;-69
2021/03/22 00:56:58;;;;;;;26.90;14.63;;;2.00;62.40;;;;;;5025388;28;20066;-70
2021/03/22 00:59:23;;;;;;;29.80;14.93;;;1.90;62.40;;;;;;5023628;28;20141;-70
2021/03/22 01:01:49;;;;;;;27.02;14.43;;;1.90;62.50;;;;;;5025799;28;20033;-71
2021/03/22 01:04:15;;;;;;;26.02;14.80;;;1.90;62.60;;;;;;5024797;28;20422;-70
2021/03/22 01:06:41;;;;;;;25.63;14.48;;;1.90;62.60;;;;;;5023777;28;20040;-71
2021/03/22 01:09:06;;;;;;;24.90;14.60;;;1.90;62.70;;;;;;5025865;28;20021;-70
2021/03/22 01:11:32;;;;;;;27.42;14.70;;;1.80;62.70;;;;;;5023341;28;20021;-70
2021/03/22 01:13:59;;;;;;;25.48;13.48;;;1.90;62.90;;;;;;5024391;28;20418;-69
2021/03/22 01:16:35;;;;;;;29.92;16.40;;;1.80;62.80;;;;;;5025829;28;20017;-70
2021/03/22 01:19:11;;;;;;;28.83;15.25;;;1.80;62.90;;;;;;5025749;28;20038;-71
2021/03/22 01:21:48;;;;;;;26.85;14.82;;;1.80;62.90;;;;;;5023805;28;20471;-70
2021/03/22 01:24:19;;;;;;;23.67;13.20;;;1.80;63.00;;;;;;5021852;28;20462;-70
2021/03/22 01:26:46;;;;;;;23.02;13.70;;;1.80;62.90;;;;;;5023561;28;20021;-70
2021/03/22 01:29:19;;;;;;;25.20;14.15;;;1.80;63.00;;;;;;5024692;28;20022;-70
2021/03/22 01:31:46;;;;;;;25.50;13.02;;;1.80;63.00;;;;;;5025471;28;20048;-70
2021/03/22 01:34:12;;;;;;;24.42;13.55;;;1.80;63.00;;;;;;5023937;28;20026;-70
2021/03/22 01:36:38;;;;;;;25.38;13.48;;;1.80;63.00;;;;;;5023987;28;20383;-70
2021/03/22 01:39:14;;;;;;;26.98;15.77;;;1.80;63.00;;;;;;5024980;28;20047;-70
2021/03/22 01:41:57;;;;;;;23.27;13.73;;;1.80;63.00;;;;;;5025076;28;20112;-70
2021/03/22 01:44:30;;;;;;;22.77;13.35;;;1.80;63.10;;;;;;5023293;28;20088;-71
2021/03/22 01:47:03;;;;;;;26.70;14.73;;;1.80;63.00;;;;;;5027000;28;20418;-70
2021/03/22 01:49:36;;;;;;;25.25;13.43;;;1.80;63.10;;;;;;5035194;28;20025;-70
2021/03/22 01:52:03;;;;;;;23.63;12.93;;;1.80;63.10;;;;;;5035123;28;20036;-70
2021/03/22 01:54:29;;;;;;;24.08;12.50;;;1.80;63.10;;;;;;5035204;28;20108;-70
2021/03/22 01:57:16;;;;;;;23.65;13.07;;;1.80;63.10;;;;;;5033999;28;20128;-70
2021/03/22 01:59:42;;;;;;;22.60;12.73;;;1.80;63.10;;;;;;5034340;28;20120;-70
2021/03/22 02:02:08;;;;;;;23.67;13.98;;;1.80;63.00;;;;;;5035011;28;20108;-70
2021/03/22 02:04:33;;;;;;;23.42;12.57;;;1.80;63.00;;;;;;5035178;28;20033;-70
2021/03/22 02:07:00;;;;;;;24.75;12.82;;;1.80;63.00;;;;;;5034880;28;20067;-69
2021/03/22 02:09:26;;;;;;;19.20;12.43;;;1.80;63.00;;;;;;5034714;28;20124;-70
2021/03/22 02:11:52;;;;;;;21.27;12.88;;;1.80;63.10;;;;;;5035067;28;20360;-70
2021/03/22 02:14:18;;;;;;;26.98;13.57;;;1.80;63.10;;;;;;5035214;28;20026;-69
2021/03/22 02:17:07;;;;;;;22.17;12.82;;;1.80;63.00;;;;;;5035082;28;20036;-70
2021/03/22 02:19:54;;;;;;;24.65;13.10;;;1.80;63.00;;;;;;5035400;28;20026;-70
2021/03/22 02:22:49;;;;;;;24.45;13.75;;;1.80;63.00;;;;;;5035351;28;20079;-69
2021/03/22 02:25:39;;;;;;;30.60;14.93;;;1.80;63.00;;;;;;5032763;28;20030;-70
2021/03/22 02:28:45;;;;;;;29.42;14.38;;;1.80;62.90;;;;;;5014913;28;20034;-70
2021/03/22 02:31:48;;;;;;;31.23;16.05;;;1.80;63.00;;;;;;4994523;28;20141;-69
2021/03/22 02:34:43;;;;;;;30.80;16.50;;;1.80;63.00;;;;;;5014738;28;20026;-70
2021/03/22 02:37:42;;;;;;;29.85;15.70;;;1.80;63.00;;;;;;4997018;28;20479;-70
2021/03/22 02:40:29;;;;;;;26.83;14.25;;;1.80;63.00;;;;;;5014787;28;20030;-70
2021/03/22 02:42:56;;;;;;;25.67;14.15;;;1.80;63.00;;;;;;5014470;28;20084;-70
2021/03/22 02:45:34;;;;;;;26.38;14.48;;;1.80;63.00;;;;;;5013611;28;20036;-70
2021/03/22 02:48:01;;;;;;;30.13;15.13;;;1.90;63.10;;;;;;5014923;28;20066;-70
2021/03/22 02:50:31;;;;;;;32.38;16.30;;;1.90;63.00;;;;;;5014379;28;20103;-70
2021/03/22 02:53:37;;;;;;;25.40;13.80;;;1.90;62.90;;;;;;5014461;28;20034;-70
2021/03/22 02:56:18;;;;;;;30.00;14.88;;;1.90;62.90;;;;;;5014694;28;20436;-70
2021/03/22 02:58:55;;;;;;;30.88;15.18;;;1.80;62.70;;;;;;5014161;28;20088;-70
2021/03/22 03:01:39;;;;;;;33.30;15.55;;;1.90;62.80;;;;;;5013882;28;20061;-70
2021/03/22 03:04:08;;;;;;;38.53;17.90;;;1.90;62.80;;;;;;5014479;28;20026;-70
2021/03/22 03:06:59;;;;;;;32.58;16.88;;;1.80;62.70;;;;;;5013883;28;20032;-69
2021/03/22 03:09:28;;;;;;;39.38;17.50;;;1.80;62.90;;;;;;5013919;28;20034;-70
2021/03/22 03:11:55;;;;;;;38.75;18.05;;;1.80;63.00;;;;;;5014124;28;20030;-70
2021/03/22 03:14:22;;;;;;;29.02;15.07;;;1.80;63.00;;;;;;5012585;28;20041;-70
2021/03/22 03:16:49;;;;;;;30.85;15.85;;;1.70;63.00;;;;;;5012673;28;20026;-70
2021/03/22 03:19:15;;;;;;;29.27;15.38;;;1.70;63.00;;;;;;5014353;28;20029;-70
2021/03/22 03:21:40;;;;;;;32.63;15.48;;;1.70;63.10;;;;;;5013920;28;20505;-69
2021/03/22 03:24:08;;;;;;;33.72;16.02;;;1.70;63.20;;;;;;5014241;28;20037;-69
2021/03/22 03:26:35;;;;;;;24.15;12.93;;;1.60;63.20;;;;;;5013798;28;20030;-69
2021/03/22 03:29:01;;;;;;;27.35;15.57;;;1.70;63.30;;;;;;5013908;28;20037;-70
2021/03/22 03:31:27;;;;;;;25.83;14.20;;;1.70;63.30;;;;;;5013580;28;20538;-70
2021/03/22 03:33:52;;;;;;;29.05;15.85;;;1.60;63.20;;;;;;5014239;28;20026;-71
2021/03/22 03:36:18;;;;;;;27.10;15.85;;;1.60;63.30;;;;;;5013958;28;20451;-70
2021/03/22 03:38:44;;;;;;;24.10;13.65;;;1.60;63.30;;;;;;5012252;28;20044;-70
2021/03/22 03:41:10;;;;;;;27.98;14.23;;;1.60;63.30;;;;;;5013783;28;20058;-70
2021/03/22 03:43:36;;;;;;;27.30;13.68;;;1.60;63.40;;;;;;5013418;28;20430;-70
2021/03/22 03:46:02;;;;;;;19.92;11.02;;;1.60;63.40;;;;;;5013524;28;20037;-70
2021/03/22 03:48:28;;;;;;;25.05;13.25;;;1.60;63.40;;;;;;5013516;28;20037;-70
2021/03/22 03:51:02;;;;;;;21.45;13.40;;;1.60;63.40;;;;;;5013623;28;20022;-70
2021/03/22 03:53:28;;;;;;;19.73;12.02;;;1.60;63.40;;;;;;5013692;28;20076;-71
2021/03/22 03:55:55;;;;;;;21.58;12.63;;;1.70;63.40;;;;;;5013211;28;20034;-70
2021/03/22 03:58:21;;;;;;;22.08;13.32;;;1.70;63.40;;;;;;5012870;28;20487;-70
2021/03/22 04:00:49;;;;;;;26.15;13.98;;;1.70;63.20;;;;;;5013168;28;20075;-70
2021/03/22 04:03:32;;;;;;;24.42;13.90;;;1.70;63.20;;;;;;5013384;28;20026;-70
2021/03/22 04:06:08;;;;;;;27.75;13.68;;;1.70;63.20;;;;;;5013756;28;20038;-70
2021/03/22 04:08:36;;;;;;;27.45;13.85;;;1.70;63.20;;;;;;5012989;28;20041;-70
2021/03/22 04:11:04;;;;;;;27.05;13.15;;;1.70;63.20;;;;;;5013416;28;20026;-70
2021/03/22 04:13:32;;;;;;;24.58;13.43;;;1.70;63.20;;;;;;5013257;28;20049;-70
2021/03/22 04:15:58;;;;;;;25.40;13.35;;;1.70;63.10;;;;;;5013399;28;20022;-70
2021/03/22 04:18:24;;;;;;;26.40;14.40;;;1.80;63.30;;;;;;5013035;28;20038;-70
2021/03/22 04:20:50;;;;;;;23.08;13.30;;;1.80;63.30;;;;;;5013046;28;20428;-70
2021/03/22 04:23:16;;;;;;;23.90;12.23;;;1.80;63.30;;;;;;5013150;28;20029;-71
2021/03/22 04:25:41;;;;;;;24.17;13.30;;;1.90;63.40;;;;;;5013036;28;20033;-70
2021/03/22 04:28:07;;;;;;;19.63;12.07;;;2.00;63.40;;;;;;5011559;28;20041;-70
2021/03/22 04:30:33;;;;;;;27.73;13.68;;;2.10;63.30;;;;;;5013312;28;20397;-70
2021/03/22 04:32:59;;;;;;;25.27;13.27;;;2.20;63.10;;;;;;5011761;28;20030;-70
2021/03/22 04:35:26;;;;;;;25.00;14.10;;;2.20;62.90;;;;;;5013048;28;20503;-71
2021/03/22 04:37:53;;;;;;;22.67;12.57;;;2.30;62.80;;;;;;5013305;28;20037;-71
2021/03/22 04:40:22;;;;;;;21.85;12.40;;;2.40;62.50;;;;;;5013170;28;20030;-71
2021/03/22 04:42:48;;;;;;;24.58;12.95;;;2.40;62.40;;;;;;5013037;28;20116;-71
2021/03/22 04:45:14;;;;;;;22.52;13.05;;;2.40;62.30;;;;;;5013021;28;20040;-71
2021/03/22 04:47:40;;;;;;;25.65;13.38;;;2.40;62.30;;;;;;5011727;28;20052;-71
2021/03/22 04:50:07;;;;;;;22.00;12.40;;;2.50;62.30;;;;;;5011818;28;20468;-71
2021/03/22 04:52:32;;;;;;;19.48;11.77;;;2.50;62.20;;;;;;5012804;28;20026;-71
2021/03/22 04:54:58;;;;;;;23.38;12.82;;;2.60;62.00;;;;;;5012754;28;20030;-70
2021/03/22 04:57:31;;;;;;;19.05;12.35;;;2.70;62.10;;;;;;5012366;28;20117;-71
2021/03/22 04:59:58;;;;;;;23.13;12.93;;;2.80;61.90;;;;;;5015028;28;20053;-70
2021/03/22 05:02:24;;;;;;;23.40;12.45;;;2.80;61.70;;;;;;5016020;28;20080;-70
2021/03/22 05:04:50;;;;;;;23.70;12.38;;;2.90;61.60;;;;;;5025718;28;20532;-71
2021/03/22 05:07:17;;;;;;;23.10;10.68;;;3.00;61.40;;;;;;5023840;28;20120;-71
2021/03/22 05:09:44;;;;;;;24.77;12.68;;;2.90;61.10;;;;;;5025195;28;20033;-71
2021/03/22 05:12:11;;;;;;;22.20;12.77;;;3.00;61.20;;;;;;5023533;28;20022;-71
2021/03/22 05:14:36;;;;;;;25.27;13.20;;;3.00;61.30;;;;;;5022364;28;20045;-72
2021/03/22 05:17:03;;;;;;;22.23;13.50;;;3.00;61.00;;;;;;5025422;28;20030;-71
2021/03/22 05:19:29;;;;;;;22.92;12.50;;;3.00;61.00;;;;;;5024843;28;20014;-72
2021/03/22 05:21:57;;;;;;;27.83;13.50;;;3.10;60.90;;;;;;5021342;28;20034;-71
2021/03/22 05:24:23;;;;;;;25.88;13.75;;;3.10;60.90;;;;;;5022935;28;20053;-70
2021/03/22 05:26:49;;;;;;;25.85;14.13;;;3.10;60.90;;;;;;5016674;28;20077;-72
2021/03/22 05:29:15;;;;;;;25.92;14.05;;;3.20;61.10;;;;;;5023124;28;20026;-71
2021/03/22 05:31:41;;;;;;;33.30;15.45;;;3.20;61.00;;;;;;5025327;28;20381;-71
2021/03/22 05:34:07;;;;;;;25.17;14.82;;;3.30;60.80;;;;;;5020469;28;20029;-72
2021/03/22 05:36:33;;;;;;;24.17;14.02;;;3.40;60.90;;;;;;5023333;28;20100;-70
2021/03/22 05:38:59;;;;;;;23.65;14.18;;;3.50;60.80;;;;;;5026396;28;20041;-72
2021/03/22 05:41:27;;;;;;;23.88;13.68;;;3.60;60.70;;;;;;5025933;28;20075;-72
2021/03/22 05:44:35;;;;;;;23.80;14.30;;;3.60;60.30;;;;;;5024605;28;20028;-69
2021/03/22 05:47:26;;;;;;;21.73;12.90;;;3.70;60.20;;;;;;5023852;28;20112;-70
2021/03/22 05:50:20;;;;;;;31.27;13.88;;;3.80;60.10;;;;;;5024293;28;20029;-71
2021/03/22 05:52:56;;;;;;;26.05;13.90;;;3.90;60.00;;;;;;5021126;28;20161;-70
2021/03/22 05:55:37;;;;;;;24.13;14.48;;;4.00;60.00;;;;;;5015467;28;20025;-72
2021/03/22 05:58:06;;;;;;;24.77;14.02;;;4.00;60.00;;;;;;5015400;28;20121;-71
2021/03/22 06:01:04;;;;;;;27.30;14.68;;;4.10;59.80;;;;;;5022429;28;20050;-71
2021/03/22 06:03:41;;;;;;;24.10;13.93;;;4.20;59.70;;;;;;5009950;28;20203;-71
2021/03/22 06:06:35;;;;;;;28.98;15.18;;;4.20;59.50;;;;;;5023408;28;20021;-71
2021/03/22 06:09:27;;;;;;;27.73;14.35;;;4.30;59.50;;;;;;5057131;28;20039;-72
2021/03/22 06:12:08;;;;;;;21.65;12.70;;;4.30;59.50;;;;;;5021069;28;20113;-70
2021/03/22 06:15:02;;;;;;;27.10;13.80;;;4.40;59.10;;;;;;5023438;28;20022;-71
2021/03/22 06:17:40;;;;;;;26.52;14.38;;;4.40;59.00;;;;;;5021517;28;20113;-75
2021/03/22 06:20:20;;;;;;;25.40;14.52;;;4.30;58.90;;;;;;5021510;28;20025;-73
2021/03/22 06:22:46;;;;;;;25.55;14.18;;;4.40;58.90;;;;;;5014915;28;20464;-74
2021/03/22 06:25:20;;;;;;;28.23;14.50;;;4.30;58.70;;;;;;5018006;28;20113;-75
2021/03/22 06:27:52;;;;;;;25.85;14.43;;;4.30;58.80;;;;;;5013547;28;20036;-75
2021/03/22 06:30:21;;;;;;;24.75;15.55;;;4.20;59.00;;;;;;5014981;28;20029;-74
2021/03/22 06:32:49;;;;;;;24.00;13.65;;;4.20;58.90;;;;;;5017466;28;20037;-76
2021/03/22 06:35:21;;;;;;;26.85;14.75;;;4.20;59.10;;;;;;5028638;28;20108;-74
2021/03/22 06:37:47;;;;;;;28.33;16.38;;;4.20;59.20;;;;;;5034462;28;20065;-75
2021/03/22 06:40:25;;;;;;;33.55;17.25;;;4.30;59.20;;;;;;5034391;28;20059;-75
2021/03/22 06:43:09;;;;;;;32.70;16.63;;;4.40;59.40;;;;;;5034389;28;20024;-75
2021/03/22 06:45:45;;;;;;;28.35;15.98;;;4.60;59.30;;;;;;5014639;28;20026;-74
2021/03/22 06:48:29;;;;;;;35.08;18.60;;;4.70;58.90;;;;;;5014311;28;20392;-74
2021/03/22 06:51:04;;;;;;;33.58;17.60;;;4.70;59.00;;;;;;5014675;28;20022;-75
2021/03/22 06:53:36;;;;;;;28.33;16.60;;;4.90;59.10;;;;;;5030921;28;20036;-75
2021/03/22 06:56:15;;;;;;;26.63;16.05;;;5.10;58.80;;;;;;5032990;28;20037;-75
2021/03/22 06:58:43;;;;;;;28.38;16.20;;;5.20;58.60;;;;;;5033671;28;20057;-74
2021/03/22 07:01:14;;;;;;;29.05;15.85;;;5.30;58.50;;;;;;5034350;28;20045;-75
2021/03/22 07:03:40;;;;;;;28.55;14.73;;;5.40;58.30;;;;;;5025536;28;20030;-75
2021/03/22 07:06:24;;;;;;;24.75;13.90;;;5.60;58.20;;;;;;5014312;28;20051;-74
2021/03/22 07:08:51;;;;;;;27.75;15.23;;;5.70;57.60;;;;;;5014224;28;20062;-76
2021/03/22 07:11:20;;;;;;;32.88;15.35;;;5.80;57.60;;;;;;5013997;28;20100;-75
2021/03/22 07:14:01;;;;;;;29.92;16.52;;;5.80;56.90;;;;;;5023325;28;20468;-76
2021/03/22 07:16:30;;;;;;;34.72;17.15;;;5.80;57.00;;;;;;5013715;28;20026;-75
2021/03/22 07:19:14;;;;;;;29.58;17.23;;;6.00;57.20;;;;;;5012636;28;20108;-75
2021/03/22 07:21:47;;;;;;;28.73;16.90;;;6.00;56.70;;;;;;5013246;28;20426;-75
2021/03/22 07:24:24;;;;;;;31.58;17.75;;;6.00;56.10;;;;;;5013827;28;20029;-75
2021/03/22 07:27:08;;;;;;;30.55;17.30;;;6.00;56.40;;;;;;5004930;28;20510;-76
2021/03/22 07:30:18;;;;;;;31.52;18.45;;;6.10;56.80;;;;;;5013813;28;20052;-74
2021/03/22 07:33:07;;;;;;;32.15;17.58;;;6.30;56.60;;;;;;5000981;28;20117;-74
2021/03/22 07:36:06;;;;;;;30.55;17.17;;;6.60;56.60;;;;;;5015428;28;20029;-73
2021/03/22 07:38:58;;;;;;;35.08;17.67;;;6.90;55.90;;;;;;4996636;28;20042;-75
2021/03/22 07:41:24;;;;;;;35.70;18.95;;;7.00;55.30;;;;;;5003044;28;20435;-76
2021/03/22 07:44:27;;;;;;;29.70;16.65;;;7.00;54.80;;;;;;5005831;28;20034;-76
2021/03/22 07:47:17;;;;;;;32.60;17.10;;;6.90;54.70;;;;;;5004335;28;20156;-77
2021/03/22 07:49:58;;;;;;;32.28;17.23;;;6.90;54.80;;;;;;5021559;28;20193;-76
2021/03/22 07:52:27;;;;;;;31.17;18.63;;;6.90;54.60;;;;;;5024162;28;20048;-80
2021/03/22 07:55:13;;;;;;;28.63;16.65;;;7.00;55.00;;;;;;5020076;28;20126;-76
2021/03/22 07:57:43;;;;;;;32.95;18.33;;;7.20;55.00;;;;;;5022521;28;20029;-75
2021/03/22 08:00:33;;;;;;;32.70;18.02;;;7.50;54.80;;;;;;5028973;28;20057;-75
2021/03/22 08:03:19;;;;;;;33.78;17.63;;;7.80;54.70;;;;;;5013396;28;20122;-75
2021/03/22 08:06:04;;;;;;;37.50;19.27;;;8.10;55.10;;;;;;5024550;28;20113;-74
2021/03/22 08:08:56;;;;;;;35.42;19.38;;;8.50;53.70;;;;;;5019718;28;20042;-76
2021/03/22 08:11:46;;;;;;;27.70;16.70;;;8.90;52.90;;;;;;5002242;28;20041;-76
2021/03/22 08:14:14;;;;;;;30.70;18.63;;;9.10;51.90;;;;;;5022417;28;20332;-76
2021/03/22 08:16:55;;;;;;;32.00;17.98;;;9.30;51.90;;;;;;5020773;28;20034;-75
2021/03/22 08:19:58;;;;;;;28.52;17.48;;;9.40;51.10;;;;;;5016865;28;20424;-77
2021/03/22 08:22:29;;;;;;;27.65;17.23;;;9.60;51.00;;;;;;4988932;28;20044;-76
2021/03/22 08:25:18;;;;;;;28.02;16.98;;;10.00;51.10;;;;;;5022591;28;20032;-76
2021/03/22 08:28:11;;;;;;;32.50;18.42;;;10.60;50.60;;;;;;5018860;28;20018;-75
2021/03/22 08:30:58;;;;;;;28.00;16.70;;;11.00;50.10;;;;;;5022203;28;20025;-76
2021/03/22 08:33:49;;;;;;;31.88;17.52;;;11.70;50.10;;;;;;5022126;28;20057;-76
2021/03/22 08:36:40;;;;;;;22.73;15.95;;;12.30;48.80;;;;;;5025764;28;20026;-75
2021/03/22 08:39:30;;;;;;;24.02;16.42;;;13.10;48.30;;;;;;5023625;28;20061;-74
2021/03/22 08:42:14;;;;;;;27.88;18.27;;;14.00;46.50;;;;;;5025427;28;20554;-74
2021/03/22 08:45:18;;;;;;;25.52;17.88;;;14.80;45.30;;;;;;5026232;28;20029;-76
2021/03/22 08:47:50;;;;;;;23.30;15.80;;;15.50;44.00;;;;;;5027470;28;20029;-74
2021/03/22 08:50:24;;;;;;;26.27;18.10;;;16.20;43.70;;;;;;5031174;28;20079;-76
2021/03/22 08:53:10;;;;;;;20.92;15.15;;;16.40;41.70;;;;;;5026124;28;20030;-76
2021/03/22 08:55:50;;;;;;;26.65;17.02;;;16.70;40.90;;;;;;5019090;28;20032;-75
2021/03/22 08:58:46;;;;;;;26.90;16.17;;;17.00;40.40;;;;;;5021477;28;20104;-76
2021/03/22 09:01:28;;;;;;;20.83;15.60;;;17.30;39.90;;;;;;5012174;28;20040;-75
2021/03/22 09:03:58;;;;;;;23.58;15.15;;;17.40;38.80;;;;;;5023518;28;20014;-76
2021/03/22 09:06:28;;;;;;;22.98;15.75;;;17.40;38.70;;;;;;5024804;28;20108;-76
2021/03/22 09:08:59;;;;;;;20.70;15.65;;;17.80;38.90;;;;;;5023962;28;20044;-75
2021/03/22 09:11:26;;;;;;;22.60;15.55;;;18.30;38.00;;;;;;5024420;28;20372;-75
2021/03/22 09:13:59;;;;;;;22.50;15.80;;;18.70;36.80;;;;;;5026249;28;20029;-75
2021/03/22 09:16:25;;;;;;;25.20;15.63;;;18.80;36.30;;;;;;5023011;28;20032;-75
2021/03/22 09:19:09;;;;;;;18.65;15.48;;;19.30;36.50;;;;;;5025764;28;20027;-76
2021/03/22 09:21:40;;;;;;;22.75;15.63;;;19.90;35.70;;;;;;5020909;28;20022;-74
2021/03/22 09:24:37;;;;;;;22.92;16.38;;;20.50;34.30;;;;;;5024127;28;20036;-75
2021/03/22 09:27:15;;;;;;;21.42;16.55;;;20.30;33.80;;;;;;5019892;28;20025;-77
2021/03/22 09:29:41;;;;;;;20.00;16.13;;;20.70;34.10;;;;;;5024073;28;20072;-75
2021/03/22 09:32:43;;;;;;;19.23;14.82;;;21.10;34.00;;;;;;5025041;28;20065;-75
2021/03/22 09:35:15;;;;;;;16.88;14.50;;;21.40;32.60;;;;;;5024769;28;20536;-74
2021/03/22 09:37:58;;;;;;;20.33;14.20;;;21.50;32.40;;;;;;5015514;28;20073;-74
2021/03/22 09:40:24;;;;;;;19.90;14.18;;;21.60;31.70;;;;;;5022115;28;20474;-75
2021/03/22 09:43:11;;;;;;;15.50;12.70;;;21.60;31.80;;;;;;5023299;28;20029;-75
2021/03/22 09:45:55;;;;;;;19.23;13.80;;;21.30;31.20;;;;;;5020461;28;20116;-74
2021/03/22 09:48:31;;;;;;;18.55;13.70;;;21.40;31.30;;;;;;5022361;28;20084;-75
2021/03/22 09:51:03;;;;;;;17.58;11.77;;;21.40;31.30;;;;;;5020938;28;20030;-75
2021/03/22 09:53:34;;;;;;;20.40;13.68;;;21.00;31.20;;;;;;5023268;28;20025;-76
2021/03/22 09:56:09;;;;;;;16.77;13.27;;;19.80;31.00;;;;;;5020053;28;20132;-75
2021/03/22 09:58:45;;;;;;;22.60;14.30;;;18.70;31.80;;;;;;5021396;28;20029;-75
2021/03/22 10:01:29;;;;;;;15.07;11.95;;;17.60;32.70;;;;;;5025513;28;20418;-75
2021/03/22 10:04:13;;;;;;;20.70;12.90;;;17.00;33.80;;;;;;5025111;28;20078;-75
2021/03/22 10:07:00;;;;;;;19.02;12.75;;;16.10;34.20;;;;;;5021469;28;20061;-75
2021/03/22 10:09:43;;;;;;;21.63;12.80;;;15.30;34.90;;;;;;5023411;28;20371;-76
2021/03/22 10:12:31;;;;;;;18.40;13.15;;;14.50;35.90;;;;;;5024562;28;20034;-76
2021/03/22 10:15:12;;;;;;;20.27;13.45;;;14.00;37.00;;;;;;5020732;28;20298;-76
2021/03/22 10:18:02;;;;;;;17.27;11.68;;;13.60;37.60;;;;;;5020537;28;20026;-74
2021/03/22 10:20:37;;;;;;;13.52;11.30;;;13.30;37.90;;;;;;5023331;28;20472;-75
2021/03/22 10:23:15;;;;;;;21.10;11.88;;;13.00;38.30;;;;;;4995563;28;20026;-74
2021/03/22 10:25:43;;;;;;;18.95;12.82;;;12.60;39.50;;;;;;4995539;28;20030;-75
2021/03/22 10:28:23;;;;;;;20.30;13.48;;;12.20;39.50;;;;;;4995599;28;20109;-76
2021/03/22 10:30:54;;;;;;;17.92;11.38;;;11.90;40.20;;;;;;5024856;28;20433;-73
2021/03/22 10:33:21;;;;;;;141.45;64.70;;;11.50;40.70;;;;;;5034561;28;20029;-75
2021/03/22 10:35:56;;;;;;;22.88;14.13;;;11.30;41.40;;;;;;5033566;28;20034;-76
2021/03/22 10:38:32;;;;;;;53.08;27.30;;;11.10;41.70;;;;;;5022276;28;20034;-74
2021/03/22 10:40:59;;;;;;;20.00;12.32;;;11.00;42.20;;;;;;5006063;28;20030;-75
2021/03/22 10:43:25;;;;;;;16.77;12.05;;;11.00;42.50;;;;;;5025832;28;20018;-75
2021/03/22 10:45:51;;;;;;;18.95;12.00;;;11.00;42.50;;;;;;5006933;28;20108;-75
2021/03/22 10:48:22;;;;;;;25.02;14.15;;;11.10;42.60;;;;;;5002388;28;20468;-76
2021/03/22 10:51:04;;;;;;;27.75;16.75;;;11.10;42.90;;;;;;5004985;28;20063;-76
2021/03/22 10:53:30;;;;;;;18.80;12.23;;;11.50;43.30;;;;;;5008265;28;20084;-77
2021/03/22 10:56:12;;;;;;;20.50;11.65;;;11.80;42.60;;;;;;5019340;28;20092;-77
2021/03/22 10:58:37;;;;;;;20.63;12.32;;;11.90;42.20;;;;;;5011338;28;20081;-76
2021/03/22 11:01:05;;;;;;;15.80;11.98;;;11.80;42.00;;;;;;5029989;28;20060;-76
2021/03/22 11:03:33;;;;;;;16.75;10.75;;;11.90;42.00;;;;;;5028071;28;20038;-77
2021/03/22 11:06:00;;;;;;;18.58;11.55;;;12.00;41.50;;;;;;5019734;28;20034;-75
2021/03/22 11:08:35;;;;;;;19.20;13.05;;;12.80;42.20;;;;;;5027956;28;20037;-76
2021/03/22 11:11:14;;;;;;;19.95;13.57;;;14.50;41.80;;;;;;5033899;28;20029;-75
2021/03/22 11:13:51;;;;;;;20.58;12.35;;;16.40;39.80;;;;;;5032528;28;20052;-77
2021/03/22 11:16:29;;;;;;;14.52;11.23;;;18.20;37.90;;;;;;5033777;28;20029;-76
2021/03/22 11:18:57;;;;;;;15.45;9.93;;;19.90;36.30;;;;;;5033532;28;20471;-75
2021/03/22 11:21:25;;;;;;;15.93;10.93;;;21.40;34.60;;;;;;5033604;28;20060;-75
2021/03/22 11:23:53;;;;;;;11.13;9.35;;;22.50;32.50;;;;;;5033435;28;20032;-75
2021/03/22 11:26:29;;;;;;;18.15;9.57;;;23.30;30.30;;;;;;5033223;28;20091;-76
2021/03/22 11:29:16;;;;;;;10.18;9.02;;;23.70;29.20;;;;;;5032111;28;20120;-74
2021/03/22 11:31:45;;;;;;;11.35;9.23;;;23.40;28.30;;;;;;5026055;28;20120;-75
2021/03/22 11:34:24;;;;;;;9.85;8.65;;;23.20;28.50;;;;;;5012576;28;20436;-75
2021/03/22 11:37:20;;;;;;;9.82;8.25;;;22.90;27.60;;;;;;5013469;28;20033;-76
2021/03/22 11:39:54;;;;;;;12.02;10.45;;;21.60;27.40;;;;;;5012392;28;20034;-75
2021/03/22 11:42:35;;;;;;;11.05;8.52;;;20.10;27.80;;;;;;5025737;28;20402;-77
2021/03/22 11:45:45;;;;;;;16.65;9.32;;;18.60;28.50;;;;;;5033310;28;20048;-76
2021/03/22 11:48:29;;;;;;;12.13;8.32;;;17.20;29.00;;;;;;5033575;28;20067;-76
2021/03/22 11:51:13;;;;;;;11.27;8.55;;;16.00;29.40;;;;;;4994237;28;20049;-74
2021/03/22 11:54:11;;;;;;;12.15;9.07;;;15.20;29.80;;;;;;4993897;28;20023;-75
2021/03/22 11:56:40;;;;;;;11.23;9.00;;;14.60;30.60;;;;;;4992342;28;20030;-78
2021/03/22 11:59:19;;;;;;;12.13;8.05;;;14.10;31.10;;;;;;5010806;28;20629;-77
2021/03/22 12:02:03;;;;;;;12.07;9.02;;;13.70;31.30;;;;;;5028351;28;20087;-76
2021/03/22 12:04:30;;;;;;;14.18;9.80;;;13.30;32.00;;;;;;5031944;28;20048;-75
2021/03/22 12:07:10;;;;;;;19.45;12.45;;;13.00;32.70;;;;;;5033204;28;20124;-74
2021/03/22 12:09:40;;;;;;;16.23;11.43;;;12.70;33.90;;;;;;5031625;28;20026;-75
2021/03/22 12:12:13;;;;;;;16.90;11.05;;;12.60;34.80;;;;;;5030784;28;20494;-75
2021/03/22 12:14:38;;;;;;;17.85;11.52;;;12.50;35.60;;;;;;5019288;28;20316;-74
2021/03/22 12:17:16;;;;;;;17.95;11.38;;;12.50;35.90;;;;;;5025046;28;20028;-75
2021/03/22 12:19:42;;;;;;;27.30;12.55;;;12.50;36.50;;;;;;5024255;28;20026;-76
2021/03/22 12:22:26;;;;;;;18.33;11.93;;;12.40;36.70;;;;;;5021964;28;20357;-75
2021/03/22 12:24:51;;;;;;;25.50;12.38;;;12.40;37.00;;;;;;5032991;28;20052;-76
2021/03/22 12:27:19;;;;;;;20.67;11.48;;;12.40;37.20;;;;;;5026994;28;20034;-74
2021/03/22 12:29:46;;;;;;;24.63;12.05;;;12.40;37.20;;;;;;5020527;28;20537;-75
2021/03/22 12:32:24;;;;;;;18.33;12.23;;;12.40;37.40;;;;;;5028172;28;20034;-75
2021/03/22 12:34:50;;;;;;;18.20;12.10;;;12.40;38.20;;;;;;5032987;28;20030;-74
2021/03/22 12:37:30;;;;;;;18.67;12.13;;;12.40;37.70;;;;;;5031612;28;20132;-75
2021/03/22 12:39:56;;;;;;;26.70;14.85;;;12.40;37.80;;;;;;5032649;28;20121;-75
2021/03/22 12:42:25;;;;;;;22.85;13.32;;;12.30;37.90;;;;;;5025946;28;20439;-74
2021/03/22 12:44:52;;;;;;;37.97;14.32;;;12.20;38.10;;;;;;5023205;28;20033;-75
2021/03/22 12:47:19;;;;;;;22.13;13.02;;;12.10;38.20;;;;;;5018407;28;20037;-75
2021/03/22 12:49:45;;;;;;;24.67;14.45;;;12.10;38.40;;;;;;5014136;28;20132;-75
2021/03/22 12:52:11;;;;;;;23.98;13.82;;;12.10;38.50;;;;;;5019609;28;20448;-76
2021/03/22 12:54:36;;;;;;;21.83;13.82;;;12.10;38.70;;;;;;5012818;28;20033;-75
2021/03/22 12:57:03;;;;;;;21.13;13.88;;;12.10;38.80;;;;;;5013314;28;20026;-76
2021/03/22 12:59:38;;;;;;;21.73;13.25;;;12.30;38.90;;;;;;5011659;28;20091;-76
2021/03/22 13:02:20;;;;;;;19.83;13.65;;;12.40;38.80;;;;;;5012429;28;20037;-76
2021/03/22 13:04:46;;;;;;;24.70;15.02;;;12.60;38.40;;;;;;5013278;28;20418;-75
2021/03/22 13:07:16;;;;;;;16.70;12.43;;;12.80;38.10;;;;;;5012876;28;20026;-75
2021/03/22 13:09:43;;;;;;;21.77;13.40;;;12.90;37.70;;;;;;5011656;28;20028;-75